Time;durP1;ratioP1;P1;durP2;ratioP2;P2;SDS_P1;SDS_P2;PMS_P1;PMS_P2;Temp;Humidity;BMP_temperature;BMP_pressure;BME280_temperature;BME280_humidity;BME280_pressure;Samples;Min_cycle;Max_cycle;Signal;HPM_P1;HPM_P2
2021/05/19 00:01:49;;;;;;;13.90;6.50;;;;;;;14.52;100.00;99753.00;1667197;86;20915;-85
2021/05/19 00:04:16;;;;;;;18.48;6.78;;;;;;;14.49;100.00;99753.59;1666974;86;21129;-84
2021/05/19 00:06:43;;;;;;;20.50;6.72;;;;;;;14.47;100.00;99745.51;1667056;85;21018;-85
2021/05/19 00:09:13;;;;;;;15.90;6.90;;;;;;;14.42;100.00;99747.80;1667099;86;21116;-85
2021/05/19 00:11:40;;;;;;;12.23;6.30;;;;;;;14.38;100.00;99747.34;1667010;86;21090;-85
2021/05/19 00:14:08;;;;;;;11.80;6.30;;;;;;;14.33;100.00;99748.28;1663282;86;21057;-86
2021/05/19 00:16:34;;;;;;;19.87;6.65;;;;;;;14.28;100.00;99754.61;1667031;86;21645;-86
2021/05/19 00:19:01;;;;;;;15.95;7.30;;;;;;;14.22;100.00;99753.67;1667188;86;21046;-86
2021/05/19 00:21:27;;;;;;;15.85;6.62;;;;;;;14.17;100.00;99762.70;1673710;84;21085;-86
2021/05/19 00:23:53;;;;;;;18.70;6.83;;;;;;;14.11;100.00;99753.08;1685797;84;21621;-85
2021/05/19 00:26:19;;;;;;;16.60;6.62;;;;;;;14.12;100.00;99754.70;1680523;84;21070;-85
2021/05/19 00:28:49;;;;;;;19.40;7.03;;;;;;;14.11;100.00;99749.58;1678478;84;20970;-85
2021/05/19 00:31:14;;;;;;;20.95;6.97;;;;;;;14.09;100.00;99753.96;1679468;84;20995;-86
2021/05/19 00:33:40;;;;;;;13.38;6.85;;;;;;;14.04;100.00;99748.64;1683078;84;21165;-86
2021/05/19 00:36:06;;;;;;;13.25;6.60;;;;;;;14.01;100.00;99750.05;1717888;82;20952;-86
2021/05/19 00:38:32;;;;;;;20.62;7.60;;;;;;;14.00;100.00;99761.17;1742520;82;21604;-85
2021/05/19 00:40:58;;;;;;;14.58;6.25;;;;;;;13.96;100.00;99757.48;1742436;82;20948;-86
2021/05/19 00:43:25;;;;;;;15.20;6.90;;;;;;;13.92;100.00;99758.64;1742690;82;20858;-86
2021/05/19 00:45:52;;;;;;;18.73;7.42;;;;;;;13.90;100.00;99766.26;1742506;82;21834;-86
2021/05/19 00:48:18;;;;;;;16.77;7.25;;;;;;;13.90;100.00;99766.81;1742349;82;21637;-85
2021/05/19 00:50:44;;;;;;;16.55;7.17;;;;;;;13.90;100.00;99770.32;1742616;81;20898;-85
2021/05/19 00:53:10;;;;;;;17.50;7.40;;;;;;;13.91;100.00;99773.83;1742422;82;21665;-85
2021/05/19 00:55:36;;;;;;;19.50;7.12;;;;;;;13.91;100.00;99776.53;1742527;82;21025;-85
2021/05/19 00:58:03;;;;;;;18.10;7.30;;;;;;;13.90;100.00;99769.52;1742497;82;21154;-85
2021/05/19 01:00:31;;;;;;;17.98;6.85;;;;;;;13.91;100.00;99767.85;1742505;82;20957;-86
2021/05/19 01:02:57;;;;;;;14.43;7.12;;;;;;;13.91;100.00;99761.08;1743051;79;21057;-85
2021/05/19 01:10:43;;;;;;;17.25;7.80;;;;;;;13.86;100.00;99759.30;1742738;82;21050;-85
2021/05/19 01:13:09;;;;;;;17.87;7.72;;;;;;;13.85;100.00;99752.28;1742333;82;21065;-85
2021/05/19 01:15:36;;;;;;;16.45;7.12;;;;;;;13.85;100.00;99745.52;1742782;82;21478;-85
2021/05/19 01:18:04;;;;;;;18.57;8.68;;;;;;;13.87;100.00;99742.48;1742528;82;21093;-86
2021/05/19 01:20:30;;;;;;;18.27;8.10;;;;;;;13.88;100.00;99739.22;1742714;82;20974;-85
2021/05/19 01:22:56;;;;;;;19.35;8.65;;;;;;;13.88;100.00;99740.02;1742373;82;21045;-85
2021/05/19 01:25:23;;;;;;;22.73;8.10;;;;;;;13.90;100.00;99737.02;1742655;82;21033;-86
2021/05/19 01:27:59;;;;;;;19.92;8.00;;;;;;;13.91;100.00;99727.22;1742507;82;21593;-85
2021/05/19 01:30:27;;;;;;;20.85;8.20;;;;;;;13.91;100.00;99730.48;1742640;82;21021;-85
2021/05/19 01:32:53;;;;;;;16.67;8.00;;;;;;;13.93;100.00;99729.64;1742538;82;21033;-85
2021/05/19 01:35:20;;;;;;;22.80;8.35;;;;;;;13.93;100.00;99726.37;1740335;82;21042;-85
2021/05/19 01:37:47;;;;;;;20.20;8.65;;;;;;;13.92;100.00;99732.11;1730244;82;21047;-85
2021/05/19 01:40:15;;;;;;;24.40;8.13;;;;;;;13.94;100.00;99733.42;1728026;83;21030;-85
2021/05/19 01:42:47;;;;;;;17.60;8.43;;;;;;;13.96;100.00;99726.33;1727963;83;20989;-85
2021/05/19 01:45:17;;;;;;;22.55;9.13;;;;;;;13.99;100.00;99723.80;1725464;83;21050;-85
2021/05/19 01:47:47;;;;;;;21.05;8.15;;;;;;;14.00;100.00;99726.78;1727919;83;21065;-85
2021/05/19 01:50:20;;;;;;;21.40;8.30;;;;;;;14.02;100.00;99723.20;1648176;86;21285;-85
2021/05/19 01:52:47;;;;;;;18.12;8.25;;;;;;;14.02;100.00;99716.42;1648511;86;21076;-85
2021/05/19 01:55:16;;;;;;;20.00;8.43;;;;;;;14.04;100.00;99713.42;1648267;86;21064;-85
2021/05/19 01:57:47;;;;;;;21.60;8.98;;;;;;;14.07;100.00;99717.67;1648233;86;21156;-85
2021/05/19 02:00:17;;;;;;;20.52;8.43;;;;;;;14.09;100.00;99712.77;1648221;86;21856;-85
2021/05/19 02:02:43;;;;;;;25.82;8.38;;;;;;;14.11;100.00;99715.16;1648278;86;21028;-85
2021/05/19 02:05:15;;;;;;;17.90;8.05;;;;;;;14.09;100.00;99718.18;1648454;86;21218;-85
2021/05/19 02:07:41;;;;;;;25.17;8.98;;;;;;;14.10;100.00;99727.11;1648133;86;21057;-85
2021/05/19 02:10:09;;;;;;;18.25;8.30;;;;;;;14.09;100.00;99733.08;1648273;86;21003;-85
2021/05/19 02:12:35;;;;;;;19.65;8.13;;;;;;;14.10;100.00;99729.81;1648220;86;21120;-85
2021/05/19 02:15:01;;;;;;;18.50;8.65;;;;;;;14.15;100.00;99723.47;1648295;86;21080;-85
2021/05/19 02:17:30;;;;;;;17.10;7.55;;;;;;;14.16;100.00;99729.95;1648600;85;21600;-85
2021/05/19 02:20:09;;;;;;;23.12;7.75;;;;;;;14.17;100.00;99724.77;1648342;86;21648;-85
2021/05/19 02:22:35;;;;;;;18.35;8.50;;;;;;;14.24;100.00;99731.15;1624877;87;21056;-85
2021/05/19 02:25:01;;;;;;;18.45;8.13;;;;;;;14.28;100.00;99729.42;1648252;86;21100;-85
2021/05/19 02:27:27;;;;;;;21.97;8.18;;;;;;;14.33;100.00;99733.38;1648064;86;21553;-85
2021/05/19 02:29:55;;;;;;;17.50;7.70;;;;;;;14.35;100.00;99728.43;1648496;86;20937;-85
2021/05/19 02:32:22;;;;;;;17.37;7.80;;;;;;;14.38;100.00;99721.04;1648279;86;21116;-85
2021/05/19 02:34:49;;;;;;;15.58;7.75;;;;;;;14.40;100.00;99718.84;1648604;85;21112;-85
2021/05/19 02:37:15;;;;;;;19.98;8.45;;;;;;;14.44;100.00;99717.13;1642991;86;21692;-85
2021/05/19 02:39:41;;;;;;;16.93;7.35;;;;;;;14.50;100.00;99724.03;1668345;85;21071;-84
2021/05/19 02:42:07;;;;;;;18.67;7.40;;;;;;;14.56;100.00;99721.20;1668506;86;20880;-85
2021/05/19 02:44:34;;;;;;;18.85;7.83;;;;;;;14.56;100.00;99726.10;1668762;85;21031;-84
2021/05/19 02:47:00;;;;;;;20.77;7.33;;;;;;;14.59;100.00;99726.02;1684218;84;20971;-85
2021/05/19 02:49:26;;;;;;;17.73;8.15;;;;;;;14.60;100.00;99733.86;1701132;84;21118;-85
2021/05/19 02:51:52;;;;;;;15.08;7.12;;;;;;;14.63;100.00;99727.02;1701164;84;21086;-84
2021/05/19 02:54:18;;;;;;;14.47;7.22;;;;;;;14.62;100.00;99718.63;1700969;84;21577;-84
2021/05/19 02:56:44;;;;;;;19.80;7.42;;;;;;;14.61;100.00;99731.38;1701118;84;21039;-85
2021/05/19 02:59:10;;;;;;;14.78;7.53;;;;;;;14.59;100.00;99729.55;1706485;84;20986;-84
2021/05/19 03:01:36;;;;;;;22.82;7.70;;;;;;;14.62;100.00;99735.72;1707818;83;21827;-85
2021/05/19 03:04:02;;;;;;;17.25;7.20;;;;;;;14.65;100.00;99739.73;1708157;83;20915;-85
2021/05/19 03:06:28;;;;;;;15.78;6.95;;;;;;;14.65;100.00;99735.09;1708232;83;21042;-85
2021/05/19 03:08:54;;;;;;;24.30;7.55;;;;;;;14.69;100.00;99740.70;1708225;83;21062;-85
2021/05/19 03:11:21;;;;;;;20.97;7.85;;;;;;;14.68;100.00;99739.11;1708275;84;20930;-85
2021/05/19 03:13:47;;;;;;;16.25;7.95;;;;;;;14.66;100.00;99743.47;1707822;84;21073;-86
2021/05/19 03:16:12;;;;;;;18.52;6.90;;;;;;;14.70;100.00;99743.65;1707485;83;21058;-85
2021/05/19 03:18:38;;;;;;;16.50;7.28;;;;;;;14.72;100.00;99746.87;1708051;84;21082;-85
2021/05/19 03:21:05;;;;;;;18.10;7.37;;;;;;;14.77;100.00;99744.03;1707974;84;20923;-86
2021/05/19 03:23:31;;;;;;;21.35;6.75;;;;;;;14.83;100.00;99743.36;1707949;84;20983;-85
2021/05/19 03:25:58;;;;;;;17.20;7.60;;;;;;;14.86;100.00;99744.89;1708090;84;20970;-85
2021/05/19 03:28:24;;;;;;;24.23;7.12;;;;;;;14.93;100.00;99739.82;1708234;83;21046;-86
2021/05/19 03:30:51;;;;;;;16.32;7.70;;;;;;;14.98;100.00;99734.27;1707594;84;21075;-86
2021/05/19 03:33:18;;;;;;;19.25;7.03;;;;;;;15.03;100.00;99738.78;1707622;84;21098;-86
2021/05/19 03:35:44;;;;;;;24.37;7.75;;;;;;;15.08;100.00;99737.27;1723590;82;21473;-86
2021/05/19 03:38:10;;;;;;;18.92;7.65;;;;;;;15.18;100.00;99728.09;1745520;81;21222;-86
2021/05/19 03:40:36;;;;;;;11.55;6.95;;;;;;;15.27;100.00;99726.77;1742839;82;20961;-85
2021/05/19 03:43:02;;;;;;;18.80;7.60;;;;;;;15.34;100.00;99731.19;1742576;82;21600;-86
2021/05/19 03:45:28;;;;;;;20.30;7.65;;;;;;;15.35;100.00;99734.95;1742835;82;21053;-86
2021/05/19 03:47:54;;;;;;;16.00;7.15;;;;;;;15.31;100.00;99725.81;1742831;82;21025;-85
2021/05/19 03:50:25;;;;;;;19.10;7.20;;;;;;;15.34;100.00;99735.25;1742790;82;21847;-85
2021/05/19 03:52:52;;;;;;;14.53;7.72;;;;;;;15.41;100.00;99741.02;1742656;82;21088;-86
2021/05/19 03:55:19;;;;;;;15.63;6.87;;;;;;;15.44;100.00;99743.94;1742668;82;21077;-85
2021/05/19 03:57:45;;;;;;;13.75;6.65;;;;;;;15.52;100.00;99751.06;1742716;82;21603;-86
2021/05/19 04:00:16;;;;;;;16.60;6.85;;;;;;;15.62;100.00;99752.16;1743040;82;20884;-86
2021/05/19 04:02:48;;;;;;;17.80;7.55;;;;;;;15.71;100.00;99746.22;1739432;82;21335;-86
2021/05/19 04:05:11;;;;;;;16.12;6.45;;;;;;;15.78;100.00;99743.83;1739445;82;21533;-85
2021/05/19 04:07:37;;;;;;;15.03;5.75;;;;;;;15.81;100.00;99749.20;1742795;82;21049;-87
2021/05/19 04:10:04;;;;;;;19.73;7.05;;;;;;;15.92;100.00;99748.36;1742596;82;20891;-86
2021/05/19 04:12:29;;;;;;;20.02;6.83;;;;;;;15.98;100.00;99752.53;1742741;82;21029;-86
2021/05/19 04:14:55;;;;;;;16.27;5.80;;;;;;;16.06;100.00;99763.95;1742816;82;21858;-86
2021/05/19 04:17:21;;;;;;;23.80;6.83;;;;;;;16.10;100.00;99761.66;1742802;82;20839;-86
2021/05/19 04:19:47;;;;;;;16.75;6.45;;;;;;;16.14;100.00;99757.73;1742813;82;20894;-86
2021/05/19 04:22:13;;;;;;;15.50;5.87;;;;;;;16.20;100.00;99754.31;1742829;82;20945;-87
2021/05/19 04:24:38;;;;;;;13.20;6.10;;;;;;;16.28;100.00;99750.80;1742933;82;20927;-86
2021/05/19 04:27:05;;;;;;;11.75;5.85;;;;;;;16.34;100.00;99749.53;1742772;82;21065;-87
2021/05/19 04:29:31;;;;;;;13.03;5.85;;;;;;;16.37;100.00;99752.17;1742735;82;21574;-86
2021/05/19 04:31:57;;;;;;;13.85;5.90;;;;;;;16.38;100.00;99746.40;1742865;82;21048;-86
2021/05/19 04:34:23;;;;;;;10.32;4.87;;;;;;;16.44;100.00;99741.61;1742863;82;20862;-87
2021/05/19 04:36:49;;;;;;;13.35;5.42;;;;;;;16.53;100.00;99741.04;1742518;82;20984;-87
2021/05/19 04:39:15;;;;;;;11.68;4.33;;;;;;;16.69;100.00;99734.57;1742414;82;21158;-87
2021/05/19 04:41:41;;;;;;;9.75;4.00;;;;;;;16.84;100.00;99731.38;1742516;82;21076;-87
2021/05/19 04:44:07;;;;;;;8.68;3.75;;;;;;;17.05;100.00;99731.48;1739211;82;21175;-86
2021/05/19 04:46:33;;;;;;;11.38;3.65;;;;;;;17.38;100.00;99734.98;1742525;82;20883;-87
2021/05/19 04:48:59;;;;;;;7.25;3.27;;;;;;;17.70;100.00;99741.16;1742441;82;21026;-88
2021/05/19 04:51:27;;;;;;;10.40;3.58;;;;;;;18.05;100.00;99743.73;1721893;82;21161;-87
2021/05/19 04:53:53;;;;;;;13.62;3.47;;;;;;;18.35;100.00;99746.41;1742361;82;21077;-87
2021/05/19 04:56:18;;;;;;;11.85;3.20;;;;;;;18.47;100.00;99741.58;1742602;82;21703;-88
2021/05/19 04:58:44;;;;;;;7.05;2.65;;;;;;;18.56;100.00;99744.49;1742452;82;21312;-88
2021/05/19 05:01:10;;;;;;;12.40;2.62;;;;;;;18.60;100.00;99750.07;1742926;82;21017;-87
2021/05/19 05:03:36;;;;;;;9.65;2.75;;;;;;;18.43;100.00;99751.01;1742261;82;22727;-87
2021/05/19 05:06:03;;;;;;;8.80;3.02;;;;;;;18.39;100.00;99749.52;1742394;82;21032;-87
2021/05/19 05:08:29;;;;;;;7.40;2.77;;;;;;;18.33;100.00;99743.23;1742582;82;20958;-88
2021/05/19 05:10:56;;;;;;;11.65;2.98;;;;;;;18.28;100.00;99752.97;1742768;82;20854;-88
2021/05/19 05:13:23;;;;;;;9.65;3.00;;;;;;;18.22;100.00;99740.09;1742416;82;21049;-87
2021/05/19 05:15:50;;;;;;;8.43;3.00;;;;;;;18.29;100.00;99745.80;1742458;82;21538;-88
2021/05/19 05:18:16;;;;;;;8.28;2.40;;;;;;;18.36;100.00;99752.91;1742464;82;21046;-87
2021/05/19 05:20:42;;;;;;;12.93;3.15;;;;;;;18.40;100.00;99754.41;1721679;82;20974;-88
2021/05/19 05:23:08;;;;;;;10.05;3.00;;;;;;;18.45;100.00;99762.97;1742538;82;21009;-88
2021/05/19 05:25:34;;;;;;;8.05;2.83;;;;;;;18.45;100.00;99762.97;1742535;82;21623;-87
2021/05/19 05:28:00;;;;;;;10.28;2.83;;;;;;;18.63;100.00;99763.05;1742585;82;21125;-88
2021/05/19 05:30:26;;;;;;;11.70;2.60;;;;;;;18.91;100.00;99767.95;1742334;82;20862;-88
2021/05/19 05:32:51;;;;;;;8.00;2.83;;;;;;;19.08;100.00;99769.73;1742656;82;20989;-88
2021/05/19 05:35:18;;;;;;;12.90;2.80;;;;;;;19.27;100.00;99773.54;1742438;82;20882;-88
2021/05/19 05:37:43;;;;;;;4.45;2.27;;;;;;;19.31;100.00;99780.48;1742435;82;21152;-88
2021/05/19 05:40:10;;;;;;;10.13;2.35;;;;;;;19.35;100.00;99780.02;1742423;82;21763;-87
2021/05/19 05:42:36;;;;;;;6.25;2.30;;;;;;;19.26;100.00;99784.22;1742210;82;21108;-88
2021/05/19 05:51:19;;;;;;;8.93;3.15;;;;;;;19.16;100.00;99793.43;1775694;79;22757;-86
2021/05/19 05:53:45;;;;;;;8.03;2.62;;;;;;;19.08;100.00;99789.64;1748458;82;21621;-85
2021/05/19 05:56:10;;;;;;;5.87;2.62;;;;;;;19.04;100.00;99796.92;1748372;82;21040;-85
2021/05/19 05:58:36;;;;;;;7.60;2.65;;;;;;;19.03;100.00;99798.86;1748278;82;20965;-86
2021/05/19 06:01:02;;;;;;;7.85;2.45;;;;;;;19.02;100.00;99796.45;1748496;81;21088;-87
2021/05/19 06:03:28;;;;;;;5.15;2.25;;;;;;;18.99;100.00;99793.02;1717808;83;20898;-86
2021/05/19 06:05:54;;;;;;;8.53;2.20;;;;;;;18.98;100.00;99801.79;1717931;82;20922;-86
2021/05/19 06:08:20;;;;;;;6.60;2.10;;;;;;;18.95;100.00;99802.46;1718057;82;21078;-86
2021/05/19 06:10:46;;;;;;;7.45;2.25;;;;;;;18.96;100.00;99797.22;1717891;83;20894;-85
2021/05/19 06:13:11;;;;;;;9.30;2.40;;;;;;;19.18;100.00;99793.33;1718022;83;20862;-87
2021/05/19 06:15:37;;;;;;;9.70;2.08;;;;;;;19.49;100.00;99794.17;1717993;83;20961;-86
2021/05/19 06:18:03;;;;;;;5.78;1.95;;;;;;;19.91;100.00;99790.48;1717762;83;21009;-85
2021/05/19 06:20:30;;;;;;;3.92;1.85;;;;;;;20.51;100.00;99792.91;1717683;83;21127;-85
2021/05/19 06:22:55;;;;;;;7.83;2.15;;;;;;;21.00;100.00;99787.30;1717908;83;21128;-86
2021/05/19 06:25:23;;;;;;;7.03;2.20;;;;;;;21.27;100.00;99780.19;1718031;83;21125;-86
2021/05/19 06:27:49;;;;;;;5.58;2.00;;;;;;;21.45;100.00;99786.16;1725761;82;21625;-86
2021/05/19 06:30:15;;;;;;;6.72;2.35;;;;;;;21.45;100.00;99780.67;1748291;82;21061;-86
2021/05/19 06:32:41;;;;;;;4.53;1.75;;;;;;;21.51;100.00;99781.21;1748090;81;21069;-86
2021/05/19 06:35:08;;;;;;;7.90;1.90;;;;;;;21.47;100.00;99774.27;1748168;81;20902;-86
2021/05/19 06:37:34;;;;;;;7.37;1.72;;;;;;;21.29;100.00;99784.72;1748139;81;21065;-86
2021/05/19 06:40:00;;;;;;;6.20;1.82;;;;;;;21.36;100.00;99786.08;1748270;81;21580;-86
2021/05/19 06:42:26;;;;;;;8.30;2.00;;;;;;;21.59;100.00;99780.24;1748429;81;20977;-86
2021/05/19 06:44:52;;;;;;;8.80;2.05;;;;;;;22.34;100.00;99777.88;1748339;82;21063;-86
2021/05/19 06:47:18;;;;;;;7.83;1.60;;;;;;;23.19;100.00;99778.63;1748175;81;20950;-86
2021/05/19 06:49:44;;;;;;;8.78;1.60;;;;;;;23.63;99.23;99778.99;1744861;81;21001;-85
2021/05/19 06:52:10;;;;;;;7.78;1.65;;;;;;;23.88;94.33;99779.99;1735206;82;21037;-85
2021/05/19 06:54:36;;;;;;;3.65;1.60;;;;;;;24.03;91.17;99775.73;1735298;81;21044;-86
2021/05/19 06:57:03;;;;;;;8.93;1.70;;;;;;;23.95;87.79;99767.73;1735259;82;20970;-86
2021/05/19 06:59:29;;;;;;;4.72;1.65;;;;;;;23.87;86.95;99773.70;1735008;82;21042;-85
2021/05/19 07:01:55;;;;;;;10.38;1.62;;;;;;;23.81;85.00;99766.92;1734681;82;20973;-86
2021/05/19 07:04:21;;;;;;;11.38;1.60;;;;;;;23.74;82.14;99772.33;1734435;82;21450;-85
2021/05/19 07:06:48;;;;;;;6.67;1.77;;;;;;;23.50;79.65;99771.52;1713979;82;21558;-86
2021/05/19 07:09:14;;;;;;;3.87;1.25;;;;;;;23.23;79.25;99765.72;1734509;82;21078;-87
2021/05/19 07:11:40;;;;;;;11.73;1.72;;;;;;;23.05;80.42;99765.40;1734625;82;20875;-86
2021/05/19 07:14:13;;;;;;;3.35;1.27;;;;;;;22.86;80.29;99760.70;1734624;82;20962;-86
2021/05/19 07:16:36;;;;;;;8.33;1.92;;;;;;;22.64;81.59;99760.84;1731441;82;21055;-86
2021/05/19 07:19:03;;;;;;;7.58;1.50;;;;;;;22.60;81.54;99760.78;1734398;82;21594;-85
2021/05/19 07:21:28;;;;;;;3.87;1.70;;;;;;;22.65;82.47;99767.37;1734490;82;21030;-86
2021/05/19 07:23:54;;;;;;;149.77;57.48;;;;;;;22.94;82.42;99762.41;1734567;81;20832;-86
2021/05/19 07:26:23;;;;;;;23.22;8.03;;;;;;;23.18;80.68;99759.97;1734426;82;21625;-86
2021/05/19 07:28:50;;;;;;;7.75;2.20;;;;;;;23.63;82.35;99764.45;1734371;81;21050;-88
2021/05/19 07:31:16;;;;;;;14.63;2.62;;;;;;;23.84;83.59;99764.81;1734446;82;21011;-85
2021/05/19 07:33:42;;;;;;;9.18;2.00;;;;;;;23.89;83.62;99751.33;1734420;81;20982;-85
2021/05/19 07:36:08;;;;;;;8.93;3.12;;;;;;;24.69;85.49;99754.78;1734493;81;20887;-86
2021/05/19 07:38:34;;;;;;;7.58;1.67;;;;;;;26.11;70.76;99744.83;1734593;82;21601;-86
2021/05/19 07:41:00;;;;;;;7.12;1.40;;;;;;;27.29;65.50;99740.33;1734547;82;20859;-85
2021/05/19 07:43:26;;;;;;;3.52;1.05;;;;;;;27.25;60.79;99743.70;1734496;82;20895;-85
2021/05/19 07:45:52;;;;;;;5.95;1.60;;;;;;;26.98;56.24;99742.64;1734496;82;21098;-85
2021/05/19 07:48:18;;;;;;;4.92;1.35;;;;;;;26.56;57.20;99749.63;1734412;82;20907;-85
2021/05/19 07:50:44;;;;;;;5.83;1.60;;;;;;;25.96;58.93;99741.78;1734417;81;21094;-87
2021/05/19 07:53:10;;;;;;;5.22;1.70;;;;;;;25.31;58.80;99735.75;1734577;82;20868;-88
2021/05/19 07:58:30;;;;;;;4.35;1.37;;;;;;;24.12;67.85;99734.17;1665539;84;21160;-84
2021/05/19 08:03:21;;;;;;;5.00;1.30;;;;;;;23.75;79.00;99731.26;1667556;84;22398;-83
2021/05/19 08:05:47;;;;;;;8.60;1.60;;;;;;;23.61;82.13;99740.05;1668613;84;21082;-84
2021/05/19 08:08:14;;;;;;;7.12;2.00;;;;;;;23.49;88.82;99739.66;1670393;84;20971;-83
2021/05/19 08:10:41;;;;;;;8.48;1.50;;;;;;;24.90;100.00;99738.47;1669009;84;22058;-81
2021/05/19 08:13:09;;;;;;;5.75;1.90;;;;;;;26.68;82.30;99727.77;1669929;84;21074;-83
2021/05/19 08:15:35;;;;;;;13.62;3.08;;;;;;;28.02;64.32;99723.29;1692407;84;21082;-86
2021/05/19 08:18:08;;;;;;;4.05;2.08;;;;;;;29.39;61.37;99721.44;1675837;84;21058;-82
2021/05/19 08:20:35;;;;;;;7.45;1.42;;;;;;;30.75;55.84;99708.23;1658619;86;21185;-82
2021/05/19 08:23:00;;;;;;;3.90;1.30;;;;;;;32.20;51.09;99707.44;1664774;86;21115;-82
2021/05/19 08:25:27;;;;;;;6.58;1.40;;;;;;;33.59;41.06;99681.14;1665049;84;20977;-85
2021/05/19 08:27:55;;;;;;;10.28;1.50;;;;;;;33.59;41.06;99681.14;1645985;84;21058;-84
2021/05/19 08:30:23;;;;;;;6.37;1.60;;;;;;;34.28;39.17;99697.02;1697367;84;21672;-82
2021/05/19 08:32:48;;;;;;;4.28;1.30;;;;;;;34.41;36.76;99692.84;1697651;84;21576;-82
2021/05/19 08:35:14;;;;;;;3.50;1.55;;;;;;;33.92;38.45;99691.64;1677240;84;20962;-83
2021/05/19 08:37:41;;;;;;;6.80;1.95;;;;;;;33.29;35.64;99686.48;1669423;85;21118;-83
2021/05/19 08:40:08;;;;;;;5.85;1.50;;;;;;;33.61;36.97;99684.29;1668892;84;21093;-83
2021/05/19 08:42:36;;;;;;;3.80;1.25;;;;;;;33.05;36.75;99685.89;1664499;85;21100;-84
2021/05/19 08:45:09;;;;;;;4.22;1.30;;;;;;;32.06;37.54;99681.44;1641952;85;21094;-84
2021/05/19 08:47:35;;;;;;;7.00;2.37;;;;;;;31.23;38.17;99679.90;1666868;85;21810;-85
2021/05/19 08:50:05;;;;;;;5.55;1.57;;;;;;;31.08;39.08;99684.12;1688545;81;21564;-85
2021/05/19 08:52:33;;;;;;;8.53;1.42;;;;;;;32.00;38.86;99686.52;1739809;82;21044;-84
2021/05/19 08:54:58;;;;;;;3.72;1.17;;;;;;;31.12;38.11;99682.88;1709043;82;21071;-84
2021/05/19 08:57:24;;;;;;;6.95;1.72;;;;;;;29.76;39.06;99684.59;1732667;82;20892;-83
2021/05/19 08:59:50;;;;;;;9.38;2.77;;;;;;;29.09;39.99;99683.19;1744044;81;21818;-83
2021/05/19 09:02:17;;;;;;;12.98;2.92;;;;;;;28.82;40.98;99677.42;1763141;80;20879;-83
2021/05/19 09:04:44;;;;;;;10.48;1.47;;;;;;;28.48;41.94;99689.89;1743428;81;20989;-84
2021/05/19 09:07:20;;;;;;;19.12;2.72;;;;;;;27.93;41.17;99683.55;1762895;81;20974;-83
2021/05/19 09:09:46;;;;;;;10.80;1.70;;;;;;;28.00;41.74;99684.11;1763019;81;21593;-85
2021/05/19 09:12:16;;;;;;;7.53;2.33;;;;;;;29.11;40.64;99679.42;1762985;81;21089;-84
2021/05/19 09:15:03;;;;;;;6.50;1.50;;;;;;;29.25;41.10;99677.14;1745861;81;21568;-83
2021/05/19 09:17:34;;;;;;;28.77;5.45;;;;;;;30.26;41.28;99677.11;1738054;82;21018;-84
2021/05/19 09:20:07;;;;;;;6.70;1.55;;;;;;;31.27;38.17;99676.47;1689798;84;21660;-85
2021/05/19 09:22:38;;;;;;;17.40;4.30;;;;;;;31.65;36.90;99677.59;1736315;82;21143;-83
2021/05/19 09:25:25;;;;;;;10.63;3.15;;;;;;;31.25;37.39;99669.13;1681516;83;21782;-83
2021/05/19 09:27:59;;;;;;;14.30;1.20;;;;;;;31.72;38.32;99669.12;1640366;87;21158;-84
2021/05/19 09:30:41;;;;;;;9.33;1.60;;;;;;;31.81;36.88;99664.38;1615699;87;21137;-84
2021/05/19 09:33:17;;;;;;;5.50;1.25;;;;;;;32.59;35.65;99664.77;1634397;87;21155;-85
2021/05/19 09:35:46;;;;;;;9.53;1.22;;;;;;;33.06;35.52;99667.91;1641891;87;21108;-85
2021/05/19 09:38:29;;;;;;;7.72;1.80;;;;;;;33.41;33.08;99661.41;1558066;92;21119;-85
2021/05/19 09:41:16;;;;;;;3.22;1.00;;;;;;;33.45;31.04;99660.72;1558175;92;21135;-86
2021/05/19 09:43:42;;;;;;;3.80;1.02;;;;;;;33.55;31.22;99663.70;1494637;95;21147;-86
2021/05/19 09:48:42;;;;;;;3.20;0.98;;;;;;;34.23;32.07;99651.41;1427469;100;21176;-84
2021/05/19 09:51:09;;;;;;;6.22;1.42;;;;;;;33.50;31.23;99657.20;1428425;100;21257;-83
2021/05/19 09:53:35;;;;;;;4.08;1.07;;;;;;;33.27;32.18;99658.20;1430110;100;21191;-84
2021/05/19 09:56:05;;;;;;;5.08;1.67;;;;;;;32.91;31.33;99656.27;1430328;100;21172;-83
2021/05/19 09:58:36;;;;;;;4.10;1.10;;;;;;;32.96;32.62;99645.98;1430370;100;21712;-83
2021/05/19 10:01:03;;;;;;;4.62;1.00;;;;;;;32.95;31.87;99645.82;1430382;100;21689;-83
2021/05/19 10:03:32;;;;;;;6.87;1.35;;;;;;;32.81;32.09;99644.15;1413769;100;21789;-83
2021/05/19 10:06:20;;;;;;;5.80;0.78;;;;;;;32.00;32.51;99639.92;1410097;101;21193;-84
2021/05/19 10:08:45;;;;;;;4.72;1.20;;;;;;;31.18;33.54;99640.03;1410292;101;21143;-83
2021/05/19 10:11:13;;;;;;;4.78;1.20;;;;;;;30.20;34.20;99642.61;1410406;101;21131;-84
2021/05/19 10:13:42;;;;;;;6.45;1.20;;;;;;;29.58;34.33;99646.48;1389243;101;21655;-83
2021/05/19 10:16:10;;;;;;;2.85;0.98;;;;;;;29.13;35.74;99642.34;1381559;103;21245;-83
2021/05/19 10:18:44;;;;;;;4.92;1.27;;;;;;;28.63;36.20;99644.86;1381465;103;21088;-83
2021/05/19 10:21:10;;;;;;;6.67;1.67;;;;;;;28.62;36.37;99641.09;1378787;98;21172;-84
2021/05/19 10:23:38;;;;;;;5.97;1.25;;;;;;;29.01;36.71;99645.59;1437373;99;21148;-84
2021/05/19 10:26:08;;;;;;;4.72;1.05;;;;;;;28.85;37.50;99634.39;1437440;99;21596;-84
2021/05/19 10:28:47;;;;;;;2.50;0.82;;;;;;;28.73;36.64;99643.20;1398201;101;21926;-86
2021/05/19 10:31:40;;;;;;;11.10;1.80;;;;;;;28.87;35.76;99647.27;1398584;102;21190;-84
2021/05/19 10:34:01;;;;;;;6.97;1.70;;;;;;;28.96;37.71;99644.81;1398737;102;21596;-85
2021/05/19 10:36:32;;;;;;;5.37;1.85;;;;;;;29.11;37.58;99647.51;1398664;102;21632;-84
2021/05/19 10:39:15;;;;;;;3.45;1.37;;;;;;;28.67;38.46;99662.85;1432090;98;21126;-85
2021/05/19 10:41:49;;;;;;;7.12;1.12;;;;;;;28.37;38.37;99667.55;1434679;98;21213;-84
2021/05/19 10:44:20;;;;;;;8.18;1.25;;;;;;;27.90;38.61;99668.33;1439300;99;21107;-83
2021/05/19 10:47:07;;;;;;;4.90;1.25;;;;;;;27.94;38.70;99671.27;1403127;102;21193;-82
2021/05/19 10:58:01;;;;;;;4.75;1.60;;;;;;;28.48;38.70;99665.55;1399686;102;21857;-84
2021/05/19 11:00:29;;;;;;;4.70;0.85;;;;;;;28.40;38.55;99659.81;1399538;102;21137;-84
2021/05/19 11:03:01;;;;;;;5.00;1.50;;;;;;;28.16;37.60;99658.74;1399548;102;21212;-84
2021/05/19 11:05:35;;;;;;;6.15;1.47;;;;;;;28.12;38.72;99652.41;1399700;102;21585;-83
2021/05/19 11:08:13;;;;;;;4.85;0.93;;;;;;;28.25;38.71;99643.25;1399470;102;21332;-84
2021/05/19 11:10:46;;;;;;;5.28;0.75;;;;;;;28.60;37.28;99638.73;1399350;102;21718;-83
2021/05/19 11:13:11;;;;;;;5.83;0.90;;;;;;;28.69;37.73;99641.06;1399713;101;21137;-83
2021/05/19 11:15:47;;;;;;;9.28;1.30;;;;;;;28.74;37.03;99641.42;1399679;102;21692;-83
2021/05/19 11:21:16;;;;;;;4.15;1.67;;;;;;;28.54;34.70;99650.06;1432714;99;21040;-85
2021/05/19 11:24:07;;;;;;;3.77;1.30;;;;;;;28.21;36.68;99653.58;1448733;99;21082;-84
2021/05/19 11:26:42;;;;;;;5.03;1.02;;;;;;;28.16;36.79;99657.36;1540843;92;21682;-85
2021/05/19 11:29:11;;;;;;;4.42;1.25;;;;;;;27.76;37.82;99660.81;1506535;95;21150;-85
2021/05/19 11:31:47;;;;;;;2.92;1.35;;;;;;;27.61;36.95;99666.97;1506759;95;21103;-85
2021/05/19 11:34:16;;;;;;;3.35;0.68;;;;;;;27.30;36.85;99665.24;1479753;96;21255;-86
2021/05/19 11:36:47;;;;;;;3.05;1.20;;;;;;;27.36;36.53;99667.81;1479889;96;21672;-86
2021/05/19 11:39:38;;;;;;;2.25;0.90;;;;;;;27.06;37.10;99673.72;1436450;99;21176;-85
2021/05/19 11:42:24;;;;;;;2.55;0.60;;;;;;;27.26;37.58;99678.87;1442752;99;21184;-85
2021/05/19 11:50:23;;;;;;;5.08;1.02;;;;;;;26.78;39.45;99668.92;1387167;103;21192;-85
2021/05/19 11:52:59;;;;;;;3.65;1.20;;;;;;;26.84;39.88;99675.65;1394413;102;21715;-86
2021/05/19 11:55:40;;;;;;;2.15;0.88;;;;;;;27.26;39.69;99663.65;1387697;103;21203;-86
2021/05/19 11:58:10;;;;;;;5.65;1.35;;;;;;;27.17;40.71;99664.83;1395891;102;21735;-86
2021/05/19 12:00:50;;;;;;;4.65;1.22;;;;;;;26.88;40.81;99668.14;1387583;103;21729;-85
2021/05/19 12:03:19;;;;;;;6.58;1.40;;;;;;;26.84;41.54;99665.19;1376276;104;21337;-86
2021/05/19 12:05:56;;;;;;;2.05;0.80;;;;;;;26.68;41.74;99666.95;1376435;104;21603;-86